Time;durP1;ratioP1;P1;durP2;ratioP2;P2;SDS_P1;SDS_P2;PMS_P1;PMS_P2;Temp;Humidity;BMP_temperature;BMP_pressure;BME280_temperature;BME280_humidity;BME280_pressure;Samples;Min_cycle;Max_cycle;Signal;HPM_P1;HPM_P2
2022/05/24 00:01:41;;;;;;;11.20;2.83;;;12.50;99.90;;;;;;5036106;28;20025;-61
2022/05/24 00:04:07;;;;;;;11.13;3.10;;;12.50;99.90;;;;;;5031166;28;20028;-60
2022/05/24 00:06:33;;;;;;;11.57;2.95;;;12.40;99.90;;;;;;5036201;28;20034;-60
2022/05/24 00:08:59;;;;;;;12.55;3.55;;;12.20;99.90;;;;;;5035889;28;20032;-60
2022/05/24 00:11:25;;;;;;;12.23;2.70;;;12.20;99.90;;;;;;5035664;28;20029;-60
2022/05/24 00:13:50;;;;;;;8.98;2.80;;;12.30;99.90;;;;;;5027300;28;20370;-61
2022/05/24 00:16:17;;;;;;;10.93;2.88;;;12.30;99.90;;;;;;5032584;28;20064;-60
2022/05/24 00:18:42;;;;;;;11.88;3.15;;;12.30;99.90;;;;;;5035408;28;20056;-61
2022/05/24 00:21:08;;;;;;;10.00;2.97;;;12.30;99.90;;;;;;5037666;28;20029;-60
2022/05/24 00:23:34;;;;;;;13.45;3.72;;;12.20;99.90;;;;;;5036247;28;20040;-61
2022/05/24 00:26:05;;;;;;;7.90;2.30;;;12.00;99.90;;;;;;5036161;28;20030;-60
2022/05/24 00:28:32;;;;;;;12.57;2.80;;;12.10;99.90;;;;;;5035662;28;20512;-61
2022/05/24 00:30:59;;;;;;;10.70;3.38;;;12.20;99.90;;;;;;5032208;28;20075;-59
2022/05/24 00:33:26;;;;;;;9.85;2.88;;;12.10;99.90;;;;;;5036856;28;20029;-60
2022/05/24 00:35:53;;;;;;;9.68;2.95;;;12.10;99.90;;;;;;5035852;28;20037;-60
2022/05/24 00:38:33;;;;;;;12.98;3.03;;;12.10;99.90;;;;;;5034401;28;20096;-61
2022/05/24 00:41:02;;;;;;;10.65;3.05;;;12.00;99.90;;;;;;5036083;28;20025;-60
2022/05/24 00:43:43;;;;;;;13.48;3.20;;;12.00;99.90;;;;;;5034851;28;20116;-60
2022/05/24 00:46:15;;;;;;;11.93;2.97;;;11.90;99.90;;;;;;5016891;28;20043;-60
2022/05/24 00:49:06;;;;;;;10.52;2.78;;;11.90;99.90;;;;;;5035321;28;20466;-60
2022/05/24 00:51:41;;;;;;;8.48;2.70;;;11.90;99.90;;;;;;5045353;28;20446;-60
2022/05/24 00:54:07;;;;;;;11.43;3.33;;;11.70;99.90;;;;;;5036748;28;20071;-60
2022/05/24 00:56:51;;;;;;;16.38;3.53;;;11.70;99.90;;;;;;5035573;28;20037;-60
2022/05/24 00:59:51;;;;;;;11.75;2.92;;;11.80;99.90;;;;;;5035671;28;20032;-60
2022/05/24 01:02:18;;;;;;;13.18;3.17;;;11.70;99.90;;;;;;5033909;28;20171;-60
2022/05/24 01:04:45;;;;;;;12.82;3.22;;;11.80;99.90;;;;;;5035397;28;20024;-61
2022/05/24 01:07:11;;;;;;;9.85;3.25;;;11.80;99.90;;;;;;5031806;28;20021;-60
2022/05/24 01:09:43;;;;;;;11.48;3.35;;;11.90;99.90;;;;;;5034603;28;20033;-60
2022/05/24 01:12:19;;;;;;;12.17;3.30;;;11.90;99.90;;;;;;5036563;28;20037;-60
2022/05/24 01:14:46;;;;;;;15.75;3.60;;;12.00;99.90;;;;;;5034773;28;20288;-60
2022/05/24 01:17:12;;;;;;;9.90;2.92;;;12.10;99.90;;;;;;5033661;28;20088;-60
2022/05/24 01:19:42;;;;;;;11.20;3.38;;;12.00;99.90;;;;;;5035481;28;20021;-61
2022/05/24 01:22:45;;;;;;;12.23;3.00;;;12.00;99.90;;;;;;5031462;28;20069;-61
2022/05/24 01:25:35;;;;;;;11.23;2.55;;;12.10;99.90;;;;;;5017395;28;20104;-60
2022/05/24 01:28:15;;;;;;;13.93;3.10;;;12.30;99.90;;;;;;5030700;28;20456;-60
2022/05/24 01:30:41;;;;;;;10.40;2.50;;;12.40;99.90;;;;;;5043749;28;20100;-61
2022/05/24 01:36:09;;;;;;;9.25;2.10;;;12.50;99.90;;;;;;5034799;28;20068;-61
2022/05/24 01:38:35;;;;;;;10.18;2.30;;;12.50;99.90;;;;;;5034661;28;20473;-61
2022/05/24 01:41:03;;;;;;;10.60;2.03;;;12.60;99.90;;;;;;5033722;28;20025;-60
2022/05/24 01:43:29;;;;;;;8.13;2.08;;;12.50;99.90;;;;;;5034010;28;20115;-60
2022/05/24 01:46:03;;;;;;;10.23;2.30;;;12.40;99.90;;;;;;5031054;28;20030;-60
2022/05/24 01:48:51;;;;;;;11.13;3.00;;;12.20;99.90;;;;;;5036741;28;20028;-60
2022/05/24 01:51:22;;;;;;;9.55;1.98;;;12.10;99.90;;;;;;5033949;28;20039;-60
2022/05/24 01:53:57;;;;;;;10.07;2.20;;;12.20;99.90;;;;;;5034915;28;20030;-60
2022/05/24 01:56:38;;;;;;;8.45;2.50;;;12.10;99.90;;;;;;5033181;28;20036;-59
2022/05/24 01:59:07;;;;;;;9.73;2.33;;;12.20;99.90;;;;;;5034162;28;20477;-60
2022/05/24 02:01:39;;;;;;;8.73;2.10;;;12.00;99.90;;;;;;5034139;28;20033;-61
2022/05/24 02:04:06;;;;;;;6.95;2.33;;;11.80;99.90;;;;;;5014793;28;20022;-61
2022/05/24 02:06:32;;;;;;;8.90;2.20;;;11.80;99.90;;;;;;5036579;28;20030;-60
2022/05/24 02:08:58;;;;;;;6.45;1.80;;;11.60;99.90;;;;;;5034443;28;20095;-60
2022/05/24 02:11:29;;;;;;;8.05;2.35;;;11.70;99.90;;;;;;5033086;28;20055;-60
2022/05/24 02:14:01;;;;;;;10.68;2.20;;;11.70;99.90;;;;;;5034362;28;20025;-61
2022/05/24 02:16:32;;;;;;;8.27;2.25;;;11.60;99.90;;;;;;5033454;28;20036;-60
2022/05/24 02:18:58;;;;;;;8.50;2.20;;;11.60;99.90;;;;;;5030395;28;20025;-60
2022/05/24 02:21:24;;;;;;;10.27;2.63;;;11.60;99.90;;;;;;5035448;28;20032;-61
2022/05/24 02:23:51;;;;;;;11.98;2.70;;;11.50;99.90;;;;;;5034410;28;20121;-61
2022/05/24 02:26:21;;;;;;;9.95;2.40;;;11.40;99.90;;;;;;5034176;28;20025;-60
2022/05/24 02:28:53;;;;;;;11.85;2.72;;;11.40;99.90;;;;;;5034022;28;20025;-60
2022/05/24 02:31:21;;;;;;;8.75;2.30;;;11.30;99.90;;;;;;5031822;28;20021;-61
2022/05/24 02:33:48;;;;;;;7.38;2.10;;;11.20;99.90;;;;;;5032814;28;20390;-61
2022/05/24 02:36:14;;;;;;;9.20;2.47;;;11.20;99.90;;;;;;5033848;28;20029;-61
2022/05/24 02:38:40;;;;;;;10.07;2.45;;;11.10;99.90;;;;;;5034059;28;20053;-61
2022/05/24 02:43:51;;;;;;;6.03;2.40;;;11.10;99.90;;;;;;5034072;28;20059;-61
2022/05/24 02:46:18;;;;;;;11.15;2.85;;;11.10;99.90;;;;;;5031415;28;20072;-61
2022/05/24 02:48:44;;;;;;;8.60;2.70;;;11.10;99.90;;;;;;5032832;28;20025;-61
2022/05/24 02:51:12;;;;;;;10.80;2.80;;;11.10;99.90;;;;;;5035742;28;20474;-61
2022/05/24 02:53:39;;;;;;;9.60;2.35;;;11.20;99.90;;;;;;5033918;28;20033;-61
2022/05/24 02:56:07;;;;;;;7.00;2.50;;;11.20;99.90;;;;;;5035362;28;20056;-61
2022/05/24 02:58:34;;;;;;;10.07;2.58;;;11.10;99.90;;;;;;5036497;28;20041;-61
2022/05/24 03:01:00;;;;;;;8.20;2.67;;;11.10;99.90;;;;;;5033878;28;20561;-60
2022/05/24 03:03:26;;;;;;;12.07;2.80;;;11.20;99.90;;;;;;5039756;28;20049;-61
2022/05/24 03:05:51;;;;;;;12.40;2.90;;;11.20;99.90;;;;;;5037844;28;20039;-61
2022/05/24 03:11:01;;;;;;;;;;;11.20;99.90;;;;;;5037781;28;20033;-60
2022/05/24 03:16:13;;;;;;;8.85;2.72;;;10.90;99.90;;;;;;5019460;28;20028;-61
2022/05/24 03:18:40;;;;;;;10.27;2.63;;;10.70;99.90;;;;;;5037683;28;20045;-60
2022/05/24 03:21:06;;;;;;;6.53;2.42;;;10.50;99.90;;;;;;5038207;28;20104;-62
2022/05/24 03:23:33;;;;;;;10.23;2.83;;;10.60;99.90;;;;;;5037573;28;20105;-61
2022/05/24 03:25:59;;;;;;;6.15;2.65;;;10.70;99.90;;;;;;5036904;28;20348;-61
2022/05/24 03:28:25;;;;;;;9.82;3.22;;;10.70;99.90;;;;;;5035811;28;20478;-61
2022/05/24 03:30:51;;;;;;;8.02;3.30;;;10.60;99.90;;;;;;5034769;28;20052;-60
2022/05/24 03:33:17;;;;;;;11.13;3.15;;;10.70;99.90;;;;;;5039304;28;20057;-61
2022/05/24 03:35:43;;;;;;;9.65;3.10;;;10.60;99.90;;;;;;5037332;28;20029;-61
2022/05/24 03:38:09;;;;;;;10.20;3.30;;;10.60;99.90;;;;;;5036805;28;20041;-60
2022/05/24 03:40:35;;;;;;;13.07;4.00;;;10.60;99.90;;;;;;5036934;28;20024;-60
2022/05/24 03:43:01;;;;;;;11.45;4.03;;;10.60;99.90;;;;;;5032723;28;20056;-60
2022/05/24 03:45:28;;;;;;;10.38;3.88;;;10.50;99.90;;;;;;5038999;28;20398;-59
2022/05/24 03:47:54;;;;;;;9.63;3.45;;;10.50;99.90;;;;;;5036740;28;20025;-60
2022/05/24 03:50:22;;;;;;;5.90;3.38;;;10.40;99.90;;;;;;5037397;28;20040;-60
2022/05/24 03:52:48;;;;;;;7.78;3.80;;;10.30;99.90;;;;;;5035465;28;20397;-59
2022/05/24 03:55:15;;;;;;;11.18;3.95;;;10.30;99.90;;;;;;5033474;28;20022;-60
2022/05/24 04:00:25;;;;;;;10.43;4.30;;;10.20;99.90;;;;;;5038295;28;20036;-60
2022/05/24 04:02:51;;;;;;;13.25;4.28;;;10.40;99.90;;;;;;5036599;28;20033;-60
2022/05/24 04:05:17;;;;;;;12.15;3.88;;;10.30;99.90;;;;;;5036842;28;20525;-60
2022/05/24 04:07:42;;;;;;;8.90;3.40;;;10.20;99.90;;;;;;5035051;28;20047;-60
2022/05/24 04:10:11;;;;;;;9.30;3.80;;;9.90;99.90;;;;;;5032513;28;20068;-60
2022/05/24 04:12:37;;;;;;;11.02;3.72;;;9.90;99.90;;;;;;5036754;28;20064;-60
2022/05/24 04:15:03;;;;;;;9.95;3.90;;;9.80;99.90;;;;;;5037507;28;20454;-60
2022/05/24 04:17:28;;;;;;;15.20;4.80;;;9.80;99.90;;;;;;5034832;28;20128;-60
2022/05/24 04:19:54;;;;;;;13.15;4.10;;;9.80;99.90;;;;;;5036330;28;20211;-60
2022/05/24 04:22:20;;;;;;;12.25;4.82;;;9.80;99.90;;;;;;5034133;28;20497;-60
2022/05/24 04:24:46;;;;;;;11.13;4.25;;;9.70;99.90;;;;;;5034339;28;20026;-60
2022/05/24 04:27:12;;;;;;;12.50;4.18;;;9.80;99.90;;;;;;5037985;28;20033;-60
2022/05/24 04:29:40;;;;;;;9.55;4.28;;;9.70;99.90;;;;;;5034992;28;20029;-60
2022/05/24 04:32:07;;;;;;;12.10;4.22;;;9.90;99.90;;;;;;5036426;28;20036;-60
2022/05/24 04:34:33;;;;;;;8.60;3.92;;;9.80;99.90;;;;;;5035603;28;20029;-60
2022/05/24 04:36:58;;;;;;;11.15;4.18;;;9.90;99.90;;;;;;5031043;28;20033;-59
2022/05/24 04:39:25;;;;;;;9.82;4.10;;;10.00;99.90;;;;;;5037129;28;20083;-60
2022/05/24 04:44:34;;;;;;;;;;;10.10;99.90;;;;;;5033570;28;20045;-60
2022/05/24 04:47:09;;;;;;;9.90;6.03;;;10.30;99.90;;;;;;5031247;28;19909;-61
2022/05/24 04:49:38;;;;;;;10.52;5.95;;;10.30;99.90;;;;;;5032543;28;20040;-61
2022/05/24 04:52:05;;;;;;;13.35;6.50;;;10.50;99.90;;;;;;5028514;28;20510;-60
2022/05/24 04:54:31;;;;;;;14.05;6.32;;;10.60;99.90;;;;;;5035611;28;20049;-59
2022/05/24 04:56:57;;;;;;;10.18;4.93;;;10.70;99.90;;;;;;5033205;28;20473;-59
2022/05/24 04:59:22;;;;;;;11.90;4.22;;;10.60;99.90;;;;;;5035475;28;20061;-60
2022/05/24 05:01:51;;;;;;;9.75;3.90;;;10.70;99.90;;;;;;5035103;28;20068;-60
2022/05/24 05:04:18;;;;;;;8.95;3.60;;;10.70;99.90;;;;;;5032842;28;20413;-60
2022/05/24 05:06:45;;;;;;;13.55;4.10;;;10.90;99.90;;;;;;5033097;28;20057;-59
2022/05/24 05:09:11;;;;;;;9.20;3.75;;;10.90;99.90;;;;;;5037028;28;20391;-59
2022/05/24 05:11:38;;;;;;;11.43;3.70;;;10.90;99.90;;;;;;5033852;28;20040;-60
2022/05/24 05:14:05;;;;;;;11.48;3.92;;;11.10;99.90;;;;;;5035135;28;20064;-61
2022/05/24 05:16:31;;;;;;;9.82;3.78;;;11.10;99.90;;;;;;5034384;28;20123;-60
2022/05/24 05:18:56;;;;;;;9.45;3.78;;;11.30;99.90;;;;;;5031359;28;20568;-61
2022/05/24 05:21:22;;;;;;;8.23;2.60;;;11.90;99.90;;;;;;5036404;28;20397;-60
2022/05/24 05:23:48;;;;;;;7.05;2.30;;;12.70;99.90;;;;;;5034955;28;20029;-61
2022/05/24 05:26:14;;;;;;;10.45;2.88;;;12.40;99.90;;;;;;5035374;28;20029;-61
2022/05/24 05:28:41;;;;;;;7.47;2.90;;;12.10;99.90;;;;;;5034894;28;20056;-61
2022/05/24 05:31:17;;;;;;;9.20;2.97;;;12.20;99.90;;;;;;5031440;28;20049;-60
2022/05/24 05:33:44;;;;;;;7.72;2.47;;;11.90;99.90;;;;;;5034094;28;20540;-60
2022/05/24 05:36:11;;;;;;;10.07;2.60;;;11.70;99.90;;;;;;5035864;28;20021;-60
2022/05/24 05:38:37;;;;;;;7.47;2.80;;;11.70;99.90;;;;;;5034499;28;20045;-61
2022/05/24 05:41:04;;;;;;;7.47;2.60;;;11.80;99.90;;;;;;5034746;28;20029;-60
2022/05/24 05:43:30;;;;;;;7.93;2.20;;;11.90;99.90;;;;;;5033986;28;20401;-60
2022/05/24 05:45:59;;;;;;;9.18;2.30;;;12.10;99.90;;;;;;5030984;28;20037;-60
2022/05/24 05:48:25;;;;;;;6.63;2.10;;;12.20;99.90;;;;;;5036557;28;20025;-60
2022/05/24 05:50:51;;;;;;;8.70;2.42;;;12.50;99.90;;;;;;5032916;28;20032;-60
2022/05/24 05:53:19;;;;;;;6.07;2.20;;;13.00;99.90;;;;;;5034426;28;20428;-61
2022/05/24 05:55:44;;;;;;;7.85;2.20;;;13.30;99.90;;;;;;5034783;28;20033;-61
2022/05/24 05:58:11;;;;;;;7.95;2.17;;;13.50;99.90;;;;;;5031232;28;20037;-62
2022/05/24 06:00:39;;;;;;;6.55;2.20;;;14.00;99.90;;;;;;5034608;28;20037;-61
2022/05/24 06:03:05;;;;;;;6.07;1.83;;;16.70;99.90;;;;;;5035118;28;20025;-61
2022/05/24 06:05:31;;;;;;;5.90;1.77;;;18.50;99.90;;;;;;5034138;28;20109;-62
2022/05/24 06:08:00;;;;;;;3.10;1.30;;;18.30;99.90;;;;;;5034228;28;20554;-62
2022/05/24 06:10:28;;;;;;;5.00;1.65;;;17.20;99.90;;;;;;5033141;28;20017;-61
2022/05/24 06:12:57;;;;;;;5.05;1.67;;;16.00;99.90;;;;;;5031490;28;20048;-61
2022/05/24 06:15:27;;;;;;;7.53;1.80;;;15.50;99.90;;;;;;5036480;28;20113;-61
2022/05/24 06:17:53;;;;;;;7.25;1.60;;;15.10;99.90;;;;;;5033978;28;20077;-61
2022/05/24 06:20:24;;;;;;;6.03;1.70;;;15.00;99.90;;;;;;5033921;28;20375;-61
2022/05/24 06:22:52;;;;;;;8.55;2.10;;;14.90;99.90;;;;;;5034168;28;20064;-61
2022/05/24 06:25:18;;;;;;;6.55;1.92;;;15.00;99.90;;;;;;5031808;28;20105;-60
2022/05/24 06:27:44;;;;;;;5.30;1.83;;;15.40;99.90;;;;;;5033013;28;20040;-61
2022/05/24 06:30:11;;;;;;;4.82;1.80;;;16.50;99.90;;;;;;5034536;28;20022;-60
2022/05/24 06:32:37;;;;;;;7.20;1.80;;;15.90;99.90;;;;;;5038380;28;20032;-60
2022/05/24 06:35:02;;;;;;;5.72;1.63;;;15.80;99.90;;;;;;5037977;28;20030;-61
2022/05/24 06:37:30;;;;;;;8.40;1.55;;;15.60;99.90;;;;;;5036950;28;20033;-60
2022/05/24 06:39:56;;;;;;;5.28;1.83;;;15.30;99.90;;;;;;5034602;28;20034;-61
2022/05/24 06:42:22;;;;;;;7.32;1.88;;;15.20;99.90;;;;;;5040130;28;20494;-60
2022/05/24 06:44:48;;;;;;;6.82;1.85;;;15.30;99.90;;;;;;5038012;28;20030;-61
2022/05/24 06:47:14;;;;;;;5.47;1.48;;;15.30;99.90;;;;;;5038176;28;20398;-61
2022/05/24 06:49:40;;;;;;;6.35;1.88;;;15.40;99.90;;;;;;5036352;28;20143;-61
2022/05/24 06:52:06;;;;;;;6.43;1.73;;;15.40;99.90;;;;;;5033889;28;20488;-60
2022/05/24 06:54:32;;;;;;;5.07;1.70;;;15.30;99.90;;;;;;5038285;28;20030;-60
2022/05/24 06:56:58;;;;;;;5.40;1.63;;;15.30;99.90;;;;;;5036452;28;20044;-60
2022/05/24 07:02:26;;;;;;;5.93;1.50;;;15.30;99.90;;;;;;5037927;28;20453;-60
2022/05/24 07:04:57;;;;;;;4.38;1.33;;;15.70;99.90;;;;;;5037705;28;20116;-61
2022/05/24 07:07:24;;;;;;;7.90;1.90;;;15.90;99.90;;;;;;5034505;28;20438;-62
2022/05/24 07:09:51;;;;;;;4.22;1.33;;;17.00;99.90;;;;;;5034774;28;20199;-61
2022/05/24 07:12:19;;;;;;;5.68;1.70;;;17.50;99.90;;;;;;5039586;28;20084;-61
2022/05/24 07:14:44;;;;;;;3.30;1.33;;;17.50;99.90;;;;;;5037370;28;20029;-60
2022/05/24 07:17:10;;;;;;;6.18;1.70;;;17.70;99.90;;;;;;5036905;28;20498;-60
2022/05/24 07:19:38;;;;;;;3.80;1.40;;;18.00;99.90;;;;;;5037949;28;20381;-60
2022/05/24 07:22:07;;;;;;;6.28;1.48;;;18.50;99.90;;;;;;5033133;28;20026;-60
2022/05/24 07:24:34;;;;;;;4.93;1.40;;;18.60;99.90;;;;;;5047698;28;20486;-60
2022/05/24 07:27:00;;;;;;;6.85;2.10;;;19.40;99.90;;;;;;5037767;28;20108;-60
2022/05/24 07:29:26;;;;;;;4.28;1.38;;;20.30;99.90;;;;;;5036979;28;20088;-60
2022/05/24 07:31:52;;;;;;;4.82;1.55;;;22.00;99.90;;;;;;5036887;28;20108;-60
2022/05/24 07:34:19;;;;;;;5.50;1.45;;;20.90;99.90;;;;;;5035232;28;20025;-60
2022/05/24 07:36:45;;;;;;;4.25;1.33;;;20.20;99.90;;;;;;5035606;28;20132;-60
2022/05/24 07:39:11;;;;;;;4.80;1.17;;;20.80;99.90;;;;;;5038530;28;20394;-60
2022/05/24 07:47:07;;;;;;;5.15;1.50;;;18.40;99.90;;;;;;5035389;28;20028;-60
2022/05/24 07:49:33;;;;;;;6.00;1.38;;;18.80;99.90;;;;;;5036329;28;20037;-60
2022/05/24 07:51:59;;;;;;;5.25;1.40;;;21.60;99.90;;;;;;5032700;28;20033;-60
2022/05/24 07:54:25;;;;;;;3.53;1.20;;;21.20;99.90;;;;;;5039292;28;20052;-60
2022/05/24 07:56:51;;;;;;;4.63;1.40;;;19.60;99.90;;;;;;5036685;28;20119;-61
2022/05/24 07:59:17;;;;;;;6.95;1.70;;;18.70;99.90;;;;;;5036577;28;20021;-60
2022/05/24 08:01:43;;;;;;;3.58;1.27;;;17.80;99.90;;;;;;5036480;28;20029;-60
2022/05/24 08:04:09;;;;;;;4.07;1.20;;;17.40;99.90;;;;;;5033028;28;20030;-60
2022/05/24 08:06:36;;;;;;;5.93;1.30;;;17.50;99.90;;;;;;5037865;28;20032;-60
2022/05/24 08:09:02;;;;;;;4.85;1.50;;;17.20;99.90;;;;;;5035736;28;20057;-60
2022/05/24 08:11:28;;;;;;;4.88;1.52;;;17.50;99.90;;;;;;5036405;28;20065;-60
2022/05/24 08:13:54;;;;;;;4.38;1.42;;;19.00;99.90;;;;;;5036227;28;20051;-60
2022/05/24 08:16:21;;;;;;;5.88;1.55;;;22.70;99.90;;;;;;5034150;28;20103;-61
2022/05/24 08:18:47;;;;;;;4.68;1.40;;;24.20;99.90;;;;;;5034561;28;20482;-61
2022/05/24 08:21:12;;;;;;;4.50;1.38;;;25.20;99.90;;;;;;5038008;28;20132;-61
2022/05/24 08:23:38;;;;;;;5.60;1.58;;;26.30;99.90;;;;;;5036193;28;20199;-61
2022/05/24 08:26:04;;;;;;;3.10;1.20;;;25.50;99.90;;;;;;5034732;28;20037;-61
2022/05/24 08:28:30;;;;;;;5.22;1.48;;;24.70;99.90;;;;;;5035463;28;20019;-61
2022/05/24 08:30:55;;;;;;;8.18;1.42;;;24.70;99.90;;;;;;5032454;28;20474;-61
2022/05/24 08:33:23;;;;;;;6.07;1.10;;;24.30;99.90;;;;;;5038133;28;20042;-61
2022/05/24 08:35:50;;;;;;;3.95;1.10;;;24.20;99.90;;;;;;5035851;28;20029;-62
2022/05/24 08:38:16;;;;;;;4.50;1.27;;;23.90;99.90;;;;;;5036143;28;20045;-61
2022/05/24 08:40:44;;;;;;;4.00;1.40;;;23.40;99.90;;;;;;5036000;28;20080;-61
2022/05/24 08:43:22;;;;;;;5.15;1.20;;;24.10;99.90;;;;;;5032306;28;20041;-61
2022/05/24 08:48:52;;;;;;;4.18;1.00;;;22.80;99.90;;;;;;5046087;28;20394;-62
2022/05/24 08:51:28;;;;;;;6.90;1.10;;;23.50;99.90;;;;;;5036471;28;20029;-61
2022/05/24 08:53:58;;;;;;;4.68;1.20;;;23.20;99.90;;;;;;5035010;28;20026;-61
2022/05/24 08:56:29;;;;;;;3.58;1.20;;;23.30;99.90;;;;;;5035416;28;20037;-61
2022/05/24 08:59:15;;;;;;;3.33;1.23;;;22.70;99.90;;;;;;5035260;28;20029;-61
2022/05/24 09:01:43;;;;;;;2.75;1.15;;;22.30;99.90;;;;;;5035601;28;20390;-61
2022/05/24 09:04:11;;;;;;;4.28;1.20;;;21.40;99.90;;;;;;5030249;28;20064;-61
2022/05/24 09:06:51;;;;;;;2.10;1.10;;;21.40;99.90;;;;;;5036199;28;20513;-61
2022/05/24 09:09:24;;;;;;;5.35;1.40;;;21.60;99.90;;;;;;5035691;28;20108;-61
2022/05/24 09:12:10;;;;;;;5.27;1.50;;;21.00;99.90;;;;;;5035256;28;20051;-61
2022/05/24 09:15:01;;;;;;;4.25;0.98;;;20.80;99.90;;;;;;5034926;28;20075;-61
2022/05/24 09:18:02;;;;;;;4.72;1.20;;;21.10;99.90;;;;;;5034984;28;20391;-61
2022/05/24 09:20:29;;;;;;;4.78;1.40;;;21.50;99.90;;;;;;5035792;28;20112;-61
2022/05/24 09:23:06;;;;;;;4.35;1.20;;;21.50;99.90;;;;;;5035125;28;20037;-61
2022/05/24 09:25:32;;;;;;;4.80;1.40;;;21.60;99.90;;;;;;5034373;28;20013;-61
2022/05/24 09:27:57;;;;;;;5.47;1.50;;;21.70;99.90;;;;;;5031067;28;20409;-61
2022/05/24 09:30:28;;;;;;;3.78;1.10;;;22.10;99.90;;;;;;5037157;28;20498;-61
2022/05/24 09:33:18;;;;;;;3.13;1.08;;;21.50;99.90;;;;;;5035017;28;20044;-61
2022/05/24 09:35:44;;;;;;;4.80;1.27;;;22.50;99.90;;;;;;5035172;28;20029;-61
2022/05/24 09:38:16;;;;;;;7.50;1.60;;;24.00;99.90;;;;;;5034545;28;20044;-61
2022/05/24 09:41:00;;;;;;;4.55;1.20;;;24.50;99.90;;;;;;5034708;28;20111;-61
2022/05/24 09:43:33;;;;;;;4.60;1.25;;;24.30;99.90;;;;;;5031605;28;20025;-61
2022/05/24 09:46:08;;;;;;;9.45;1.38;;;24.40;99.90;;;;;;5030696;28;20486;-61
2022/05/24 09:48:40;;;;;;;3.88;1.20;;;24.40;99.90;;;;;;5044585;28;20051;-61
2022/05/24 09:51:11;;;;;;;3.35;1.30;;;23.30;99.90;;;;;;5034223;28;20025;-61
2022/05/24 09:53:49;;;;;;;4.47;1.40;;;22.60;99.90;;;;;;5034883;28;20033;-61
2022/05/24 09:56:33;;;;;;;6.25;1.50;;;21.90;99.90;;;;;;5034491;28;20022;-62
2022/05/24 09:59:01;;;;;;;5.15;1.30;;;22.90;99.90;;;;;;5034123;28;20029;-60
2022/05/24 10:01:43;;;;;;;6.63;1.42;;;22.70;99.90;;;;;;5032965;28;20100;-60
2022/05/24 10:04:25;;;;;;;9.00;1.48;;;22.60;99.90;;;;;;5015552;28;20025;-61
2022/05/24 10:06:58;;;;;;;4.22;1.42;;;22.00;99.90;;;;;;5032224;28;20033;-61
2022/05/24 10:09:49;;;;;;;5.07;1.20;;;21.70;99.90;;;;;;5035888;28;20018;-61
2022/05/24 10:12:42;;;;;;;5.97;1.35;;;21.40;99.90;;;;;;5034281;28;20087;-60
2022/05/24 10:15:19;;;;;;;4.77;1.30;;;21.20;99.90;;;;;;5035353;28;20039;-61
2022/05/24 10:18:14;;;;;;;4.93;1.30;;;20.90;99.90;;;;;;5034165;28;20040;-61
2022/05/24 10:20:49;;;;;;;3.53;1.33;;;20.00;99.90;;;;;;5034141;28;20036;-61
2022/05/24 10:23:33;;;;;;;4.55;1.30;;;19.60;99.90;;;;;;5032735;28;20033;-59
2022/05/24 10:26:18;;;;;;;5.47;1.33;;;19.90;99.90;;;;;;5033853;28;20479;-61
2022/05/24 10:28:51;;;;;;;6.97;1.63;;;19.40;99.90;;;;;;5034169;28;20074;-61
2022/05/24 10:31:32;;;;;;;5.03;1.50;;;19.20;99.90;;;;;;5029072;28;20040;-60
2022/05/24 10:40:16;;;;;;;5.30;1.50;;;20.50;99.90;;;;;;5007038;28;20137;-61
2022/05/24 10:42:43;;;;;;;;;;;20.80;99.90;;;;;;5009208;28;20052;-60
2022/05/24 10:45:23;;;;;;;6.18;1.70;;;21.20;99.90;;;;;;4989856;28;19910;-59
2022/05/24 10:47:56;;;;;;;5.32;1.35;;;21.50;99.90;;;;;;5002020;28;20057;-59
2022/05/24 10:50:36;;;;;;;5.75;1.25;;;21.30;99.90;;;;;;5003336;28;20503;-59
2022/05/24 10:53:18;;;;;;;5.40;1.38;;;21.50;99.90;;;;;;5002857;28;20033;-60
2022/05/24 10:56:08;;;;;;;5.45;1.50;;;21.30;99.90;;;;;;5002689;28;20054;-60
2022/05/24 10:58:39;;;;;;;4.03;1.27;;;21.30;99.90;;;;;;5003804;28;20053;-60
2022/05/24 11:01:17;;;;;;;6.57;1.50;;;21.20;99.90;;;;;;5006683;28;20443;-61
2022/05/24 11:03:47;;;;;;;5.20;1.42;;;21.50;99.90;;;;;;5008874;28;20050;-61
2022/05/24 11:06:27;;;;;;;4.97;1.50;;;21.80;99.90;;;;;;4994134;28;20026;-61
2022/05/24 11:09:06;;;;;;;8.25;1.67;;;21.50;99.90;;;;;;4995096;28;20045;-61
2022/05/24 11:11:56;;;;;;;7.40;1.60;;;21.90;99.90;;;;;;4995387;28;20054;-60
2022/05/24 11:14:30;;;;;;;4.63;1.30;;;22.30;99.90;;;;;;4995207;28;20038;-61
2022/05/24 11:16:56;;;;;;;3.58;1.13;;;22.00;99.90;;;;;;5012964;28;20067;-61
2022/05/24 11:19:49;;;;;;;6.50;1.30;;;21.40;99.90;;;;;;5035469;28;20037;-60
2022/05/24 11:22:45;;;;;;;5.35;1.45;;;21.20;99.90;;;;;;5017813;28;20044;-60
2022/05/24 11:25:25;;;;;;;7.18;1.50;;;21.30;99.90;;;;;;5017048;28;20053;-60
2022/05/24 11:27:52;;;;;;;5.70;1.70;;;21.10;99.90;;;;;;5034658;28;20044;-60
2022/05/24 11:30:30;;;;;;;4.85;1.48;;;20.90;99.90;;;;;;5039312;28;20041;-61
2022/05/24 11:33:10;;;;;;;5.72;1.58;;;20.90;99.90;;;;;;5037720;28;20047;-60
2022/05/24 11:35:39;;;;;;;5.68;1.65;;;21.80;99.90;;;;;;5036989;28;20064;-60
2022/05/24 11:38:20;;;;;;;5.05;1.70;;;22.20;99.90;;;;;;5036502;28;20536;-61
2022/05/24 11:40:54;;;;;;;6.10;1.67;;;22.10;99.90;;;;;;5035702;28;20058;-61
2022/05/24 11:43:49;;;;;;;8.45;2.00;;;21.60;99.90;;;;;;5034621;28;20026;-60
2022/05/24 11:46:33;;;;;;;5.03;1.88;;;22.00;99.90;;;;;;4999058;28;20176;-60
2022/05/24 11:49:00;;;;;;;6.43;1.70;;;22.20;99.90;;;;;;5013124;28;20065;-60
2022/05/24 11:51:41;;;;;;;3.83;1.30;;;22.40;99.90;;;;;;5016965;28;20034;-61
2022/05/24 11:54:19;;;;;;;7.18;1.67;;;22.70;99.90;;;;;;5015427;28;20420;-59
2022/05/24 11:57:06;;;;;;;5.07;1.95;;;23.40;99.90;;;;;;5016063;28;20442;-60
2022/05/24 11:59:52;;;;;;;9.00;1.60;;;23.30;99.90;;;;;;5009620;28;20080;-60
2022/05/24 12:02:24;;;;;;;5.82;1.23;;;22.80;98.20;;;;;;5016165;28;20064;-60
2022/05/24 12:08:35;;;;;;;6.05;1.40;;;22.40;99.50;;;;;;4979056;28;20515;-59
2022/05/24 12:11:15;;;;;;;5.68;1.50;;;22.70;97.60;;;;;;4983586;28;20503;-60
2022/05/24 12:13:46;;;;;;;4.10;1.30;;;22.30;98.40;;;;;;4983198;28;20386;-60
2022/05/24 12:16:45;;;;;;;8.57;1.63;;;22.50;97.80;;;;;;4986959;28;20046;-61
2022/05/24 12:19:32;;;;;;;3.00;1.15;;;23.20;98.60;;;;;;4965507;28;20427;-61
2022/05/24 12:22:00;;;;;;;3.97;1.30;;;23.20;96.70;;;;;;4988482;28;20039;-60
2022/05/24 12:24:28;;;;;;;4.90;1.20;;;23.40;96.60;;;;;;4996621;28;20117;-60
2022/05/24 12:27:22;;;;;;;5.20;1.42;;;22.80;97.00;;;;;;4994373;28;20030;-60
2022/05/24 12:29:58;;;;;;;4.47;1.30;;;22.80;97.20;;;;;;4993775;28;20072;-60
2022/05/24 12:32:29;;;;;;;5.05;1.67;;;22.00;95.10;;;;;;4994667;28;20038;-61
2022/05/24 12:35:06;;;;;;;6.00;1.50;;;22.00;97.60;;;;;;4994459;28;20038;-60
2022/05/24 12:37:35;;;;;;;4.50;1.40;;;22.30;97.70;;;;;;4993173;28;20034;-60
2022/05/24 12:40:22;;;;;;;4.13;1.30;;;21.70;99.50;;;;;;4990408;28;20041;-62
2022/05/24 12:42:54;;;;;;;5.43;1.45;;;21.80;99.80;;;;;;5042532;28;20520;-60
2022/05/24 12:45:44;;;;;;;4.60;1.20;;;21.60;99.90;;;;;;5036582;28;20025;-61
2022/05/24 12:48:24;;;;;;;4.28;1.30;;;21.60;99.90;;;;;;5036910;28;20068;-60
2022/05/24 12:50:51;;;;;;;3.50;1.15;;;21.20;99.90;;;;;;5035543;28;20433;-61
2022/05/24 12:53:22;;;;;;;6.05;1.33;;;20.70;99.90;;;;;;5035682;28;20033;-59
2022/05/24 12:55:58;;;;;;;4.68;1.35;;;20.40;99.90;;;;;;5035597;28;20028;-60
2022/05/24 12:58:31;;;;;;;5.07;1.40;;;19.80;99.90;;;;;;5032539;28;20064;-61
2022/05/24 13:01:29;;;;;;;4.65;1.42;;;19.90;99.90;;;;;;5032493;28;20089;-61
2022/05/24 13:04:24;;;;;;;5.68;1.50;;;19.70;99.90;;;;;;5025511;28;20116;-61
2022/05/24 13:06:51;;;;;;;5.60;1.58;;;20.30;99.90;;;;;;5045058;28;20029;-61
2022/05/24 13:09:21;;;;;;;3.50;1.30;;;20.20;99.90;;;;;;5035386;28;20029;-61
2022/05/24 13:12:04;;;;;;;5.40;1.50;;;20.10;99.90;;;;;;5035488;28;20029;-62
2022/05/24 13:14:39;;;;;;;3.63;1.30;;;19.70;99.90;;;;;;5035376;28;20055;-61
2022/05/24 13:17:07;;;;;;;5.00;1.35;;;19.60;99.90;;;;;;5035081;28;20048;-61
2022/05/24 13:19:55;;;;;;;3.75;1.33;;;19.50;99.90;;;;;;5034435;28;20111;-59
2022/05/24 13:22:24;;;;;;;5.32;1.40;;;19.70;99.90;;;;;;5019524;28;20401;-60
2022/05/24 13:24:58;;;;;;;4.20;1.30;;;19.70;99.90;;;;;;5033035;28;20068;-61
2022/05/24 13:27:25;;;;;;;5.07;1.80;;;19.70;99.90;;;;;;5036394;28;20035;-60
2022/05/24 13:35:31;;;;;;;4.78;1.30;;;20.20;99.90;;;;;;5034447;28;20087;-62
2022/05/24 13:37:59;;;;;;;3.10;1.25;;;20.30;99.90;;;;;;5032851;28;20040;-60
2022/05/24 13:40:52;;;;;;;4.15;1.10;;;20.60;99.90;;;;;;5032491;28;20498;-60
2022/05/24 13:43:37;;;;;;;3.90;1.40;;;20.70;99.90;;;;;;5017908;28;20040;-60
2022/05/24 13:46:12;;;;;;;6.15;1.33;;;20.40;99.90;;;;;;5030182;28;20060;-61
2022/05/24 13:48:54;;;;;;;4.22;1.30;;;20.30;99.90;;;;;;5044044;28;20064;-61
2022/05/24 13:51:35;;;;;;;5.78;1.30;;;20.60;99.90;;;;;;5035143;28;20029;-61